Time;durP1;ratioP1;P1;durP2;ratioP2;P2;SDS_P1;SDS_P2;PMS_P1;PMS_P2;Temp;Humidity;BMP_temperature;BMP_pressure;BME280_temperature;BME280_humidity;BME280_pressure;Samples;Min_cycle;Max_cycle;Signal;HPM_P1;HPM_P2
2021/06/22 00:00:26;;;;;;;14.15;4.53;;;24.70;76.30;;;;;;5056439;28;20025;-62
2021/06/22 00:02:52;;;;;;;12.10;3.83;;;24.70;76.00;;;;;;5044691;28;20033;-62
2021/06/22 00:05:19;;;;;;;9.30;4.07;;;24.60;75.80;;;;;;5056246;28;20028;-62
2021/06/22 00:07:46;;;;;;;9.07;4.07;;;24.60;75.80;;;;;;5056408;28;20480;-62
2021/06/22 00:10:13;;;;;;;14.38;4.00;;;24.60;75.70;;;;;;5046089;28;20117;-62
2021/06/22 00:12:39;;;;;;;10.32;3.53;;;24.50;75.30;;;;;;5036187;28;20029;-62
2021/06/22 00:15:07;;;;;;;6.82;3.42;;;24.50;75.50;;;;;;5054100;28;20048;-62
2021/06/22 00:17:33;;;;;;;9.77;4.30;;;24.40;75.20;;;;;;5056134;28;20091;-62
2021/06/22 00:19:58;;;;;;;11.75;4.20;;;24.50;75.60;;;;;;5056189;28;20029;-62
2021/06/22 00:22:24;;;;;;;11.93;4.43;;;24.40;75.80;;;;;;5055875;28;20049;-62
2021/06/22 00:24:50;;;;;;;11.88;4.05;;;24.40;76.10;;;;;;5042288;28;20033;-62
2021/06/22 00:27:16;;;;;;;9.30;3.92;;;24.40;76.00;;;;;;5055991;28;20031;-62
2021/06/22 00:29:49;;;;;;;10.75;4.13;;;24.40;76.10;;;;;;5054217;28;20032;-62
2021/06/22 00:32:14;;;;;;;13.82;4.25;;;24.30;75.90;;;;;;5036156;28;20369;-62
2021/06/22 00:34:40;;;;;;;10.35;3.75;;;24.30;75.50;;;;;;5049750;28;20025;-62
2021/06/22 00:37:06;;;;;;;10.13;4.20;;;24.30;75.30;;;;;;5048714;28;20033;-62
2021/06/22 00:39:31;;;;;;;8.52;3.92;;;24.30;74.80;;;;;;5044019;28;20025;-62
2021/06/22 00:41:57;;;;;;;11.65;4.25;;;24.20;74.80;;;;;;5055590;28;20516;-62
2021/06/22 00:44:23;;;;;;;10.15;4.00;;;24.20;74.60;;;;;;5054798;28;20098;-62
2021/06/22 00:46:48;;;;;;;8.73;4.13;;;24.20;74.30;;;;;;5055844;28;20036;-62
2021/06/22 00:49:14;;;;;;;10.80;4.35;;;24.20;74.00;;;;;;5053610;28;20029;-62
2021/06/22 00:51:42;;;;;;;11.02;4.20;;;24.20;73.70;;;;;;5054656;28;20017;-62
2021/06/22 00:54:09;;;;;;;7.13;3.38;;;24.20;73.80;;;;;;5055526;28;20040;-62
2021/06/22 00:56:35;;;;;;;7.88;3.80;;;24.20;73.80;;;;;;5055808;28;20047;-62
2021/06/22 00:59:01;;;;;;;8.07;3.85;;;24.20;74.00;;;;;;5055218;28;20021;-62
2021/06/22 01:01:26;;;;;;;11.02;3.88;;;24.20;74.20;;;;;;5053298;28;20103;-62
2021/06/22 01:03:52;;;;;;;14.90;4.15;;;24.20;73.80;;;;;;5054381;28;20488;-62
2021/06/22 01:06:20;;;;;;;11.38;4.18;;;24.20;73.80;;;;;;5055425;28;20372;-62
2021/06/22 01:08:47;;;;;;;11.75;4.07;;;24.20;73.70;;;;;;5055112;28;20029;-62
2021/06/22 01:11:14;;;;;;;10.95;3.88;;;24.20;73.90;;;;;;5052652;28;20068;-62
2021/06/22 01:13:40;;;;;;;7.57;3.50;;;24.10;74.20;;;;;;5036643;28;20053;-62
2021/06/22 01:16:05;;;;;;;11.98;4.57;;;24.10;73.80;;;;;;5035104;28;20110;-62
2021/06/22 01:18:31;;;;;;;10.75;4.07;;;24.10;74.10;;;;;;5035091;28;20421;-62
2021/06/22 01:20:58;;;;;;;8.85;4.00;;;24.10;74.40;;;;;;5044830;28;20045;-62
2021/06/22 01:23:24;;;;;;;9.98;3.75;;;24.10;74.50;;;;;;5054758;28;20063;-62
2021/06/22 01:25:50;;;;;;;9.63;3.92;;;24.10;74.70;;;;;;5055074;28;20096;-62
2021/06/22 01:28:15;;;;;;;8.75;4.50;;;24.10;74.80;;;;;;5055048;28;20100;-62
2021/06/22 01:30:41;;;;;;;8.10;4.05;;;24.10;75.00;;;;;;5054405;28;20033;-62
2021/06/22 01:33:07;;;;;;;8.90;3.40;;;24.10;74.90;;;;;;5055205;28;20029;-62
2021/06/22 01:35:33;;;;;;;8.85;3.80;;;24.00;74.50;;;;;;5044721;28;20036;-62
2021/06/22 01:38:02;;;;;;;8.40;3.22;;;24.00;74.10;;;;;;5045686;28;20353;-62
2021/06/22 01:40:28;;;;;;;8.10;3.72;;;24.00;73.90;;;;;;5046948;28;20457;-62
2021/06/22 01:42:58;;;;;;;8.32;3.40;;;24.00;73.70;;;;;;5054614;28;20082;-62
2021/06/22 01:45:24;;;;;;;8.90;3.75;;;24.00;73.20;;;;;;5054463;28;20096;-62
2021/06/22 01:47:50;;;;;;;11.68;3.60;;;24.00;73.00;;;;;;5051963;28;20021;-62
2021/06/22 01:50:16;;;;;;;9.07;3.33;;;24.00;73.20;;;;;;5052856;28;20477;-62
2021/06/22 01:52:43;;;;;;;10.73;3.75;;;24.00;72.80;;;;;;5054135;28;20028;-62
2021/06/22 01:57:56;;;;;;;9.27;3.53;;;24.00;72.20;;;;;;5054522;28;20040;-62
2021/06/22 02:00:21;;;;;;;7.45;3.53;;;24.00;71.90;;;;;;5053730;28;20029;-62
2021/06/22 02:02:47;;;;;;;11.65;3.70;;;24.00;72.00;;;;;;5041421;28;20029;-62
2021/06/22 02:05:14;;;;;;;10.13;3.53;;;24.00;72.20;;;;;;5046526;28;20080;-62
2021/06/22 02:07:40;;;;;;;8.98;3.40;;;24.00;72.10;;;;;;5054175;28;20108;-62
2021/06/22 02:10:08;;;;;;;8.65;3.30;;;24.00;72.90;;;;;;5052999;28;20025;-62
2021/06/22 02:12:33;;;;;;;7.18;3.30;;;24.00;72.00;;;;;;5049849;28;20032;-62
2021/06/22 02:14:59;;;;;;;7.00;3.45;;;24.00;71.60;;;;;;5034121;28;20025;-62
2021/06/22 02:17:24;;;;;;;5.03;3.03;;;24.00;71.20;;;;;;5034377;28;20029;-62
2021/06/22 02:19:50;;;;;;;8.52;3.10;;;24.10;71.00;;;;;;5040636;28;20029;-62
2021/06/22 02:22:16;;;;;;;4.97;3.10;;;24.10;71.10;;;;;;5053345;28;20075;-62
2021/06/22 02:24:41;;;;;;;5.78;3.33;;;24.10;70.50;;;;;;5052882;28;20063;-62
2021/06/22 02:27:07;;;;;;;6.72;3.38;;;24.10;70.50;;;;;;5053932;28;20021;-62
2021/06/22 02:29:33;;;;;;;7.68;3.22;;;24.10;70.40;;;;;;5053343;28;20461;-62
2021/06/22 02:31:59;;;;;;;8.18;3.65;;;24.10;70.10;;;;;;5053774;28;20109;-62
2021/06/22 02:34:24;;;;;;;8.40;3.28;;;24.10;70.10;;;;;;5053510;28;20444;-62
2021/06/22 02:36:50;;;;;;;14.52;3.72;;;24.20;70.20;;;;;;5051686;28;20029;-62
2021/06/22 02:39:16;;;;;;;9.50;3.55;;;24.20;69.70;;;;;;5039521;28;20037;-62
2021/06/22 02:41:41;;;;;;;6.75;3.10;;;24.20;70.00;;;;;;5052504;28;20032;-62
2021/06/22 02:44:07;;;;;;;7.82;3.30;;;24.20;70.10;;;;;;5053299;28;20074;-62
2021/06/22 02:46:32;;;;;;;8.35;3.40;;;24.30;70.10;;;;;;5043531;28;20083;-62
2021/06/22 02:48:58;;;;;;;9.27;3.55;;;24.30;70.10;;;;;;5033384;28;20029;-62
2021/06/22 02:51:24;;;;;;;10.45;3.40;;;24.40;70.00;;;;;;5051961;28;20027;-62
2021/06/22 02:53:49;;;;;;;7.25;3.53;;;24.40;69.70;;;;;;5052532;28;20062;-62
2021/06/22 02:56:15;;;;;;;5.50;3.00;;;24.40;69.60;;;;;;5052725;28;20107;-62
2021/06/22 02:58:41;;;;;;;8.13;3.28;;;24.40;69.40;;;;;;5052469;28;20044;-62
2021/06/22 03:01:07;;;;;;;7.78;3.40;;;24.50;69.50;;;;;;5051574;28;20512;-62
2021/06/22 03:03:32;;;;;;;6.47;2.95;;;24.50;69.40;;;;;;5051503;28;20017;-62
2021/06/22 03:05:58;;;;;;;9.65;3.10;;;24.50;69.60;;;;;;5051475;28;20044;-62
2021/06/22 03:08:23;;;;;;;7.78;4.03;;;24.60;69.80;;;;;;5051466;28;20053;-62
2021/06/22 03:10:49;;;;;;;9.50;5.00;;;24.70;69.60;;;;;;5050392;28;20548;-62
2021/06/22 03:13:15;;;;;;;10.52;3.60;;;24.70;69.50;;;;;;5045970;28;20036;-62
2021/06/22 03:15:40;;;;;;;8.98;3.50;;;24.70;69.50;;;;;;5054343;28;20025;-62
2021/06/22 03:18:06;;;;;;;8.15;3.30;;;24.70;69.40;;;;;;5056378;28;20036;-62
2021/06/22 03:20:32;;;;;;;7.78;3.55;;;24.80;69.40;;;;;;5055844;28;20033;-62
2021/06/22 03:22:57;;;;;;;9.50;3.20;;;24.80;69.60;;;;;;5056835;28;20036;-62
2021/06/22 03:25:23;;;;;;;12.70;3.22;;;24.80;69.70;;;;;;5055539;28;20035;-62
2021/06/22 03:27:49;;;;;;;9.20;3.08;;;24.90;69.20;;;;;;5056654;28;20105;-62
2021/06/22 03:30:15;;;;;;;9.65;3.28;;;24.90;69.00;;;;;;5055716;28;20087;-62
2021/06/22 03:32:44;;;;;;;9.25;3.72;;;25.00;68.30;;;;;;5053983;28;20029;-62
2021/06/22 03:35:11;;;;;;;7.68;3.00;;;25.00;68.20;;;;;;5057066;28;20052;-62
2021/06/22 03:37:37;;;;;;;9.38;3.35;;;25.00;68.30;;;;;;5057101;28;20029;-62
2021/06/22 03:40:05;;;;;;;7.72;3.30;;;25.00;67.90;;;;;;5055036;28;20691;-62
2021/06/22 03:42:33;;;;;;;7.95;3.47;;;25.00;67.30;;;;;;5056280;28;20078;-62
2021/06/22 03:44:58;;;;;;;9.70;3.10;;;25.00;67.20;;;;;;5056435;28;20417;-62
2021/06/22 03:47:24;;;;;;;7.82;3.10;;;25.00;67.50;;;;;;5056463;28;20075;-62
2021/06/22 03:49:50;;;;;;;8.40;3.35;;;25.00;67.00;;;;;;5056903;28;20377;-62
2021/06/22 03:52:16;;;;;;;8.15;3.45;;;25.00;67.10;;;;;;5056128;28;20025;-62
2021/06/22 03:54:41;;;;;;;8.98;2.95;;;25.00;67.20;;;;;;5044205;28;20036;-62
2021/06/22 03:57:07;;;;;;;8.27;3.45;;;25.00;67.00;;;;;;5036539;28;20033;-62
2021/06/22 03:59:33;;;;;;;9.80;3.92;;;25.00;67.50;;;;;;5056254;28;20071;-62
2021/06/22 04:01:58;;;;;;;7.65;3.47;;;25.10;67.60;;;;;;5056432;28;20048;-62
2021/06/22 04:04:24;;;;;;;6.43;3.47;;;25.20;67.50;;;;;;5041057;28;20059;-62
2021/06/22 04:06:50;;;;;;;8.48;4.05;;;25.20;67.10;;;;;;5036528;28;20057;-62
2021/06/22 04:09:16;;;;;;;10.13;3.35;;;25.30;66.90;;;;;;5052469;28;20033;-62
2021/06/22 04:11:41;;;;;;;15.25;3.92;;;25.30;67.30;;;;;;5056518;28;20021;-62
2021/06/22 04:14:07;;;;;;;7.70;3.20;;;25.40;67.40;;;;;;5056284;28;20031;-62
2021/06/22 04:16:33;;;;;;;7.18;3.40;;;25.50;67.20;;;;;;5056213;28;20071;-62
2021/06/22 04:18:58;;;;;;;5.80;3.05;;;25.60;66.60;;;;;;5055848;28;20029;-62
2021/06/22 04:21:24;;;;;;;6.90;3.05;;;25.70;65.90;;;;;;5052189;28;20056;-62
2021/06/22 04:23:50;;;;;;;8.00;2.90;;;25.70;65.40;;;;;;5052176;28;20464;-62
2021/06/22 04:26:16;;;;;;;9.73;3.65;;;25.70;65.00;;;;;;5037761;28;20045;-62
2021/06/22 04:28:42;;;;;;;10.77;3.30;;;25.70;65.30;;;;;;5047555;28;20108;-62
2021/06/22 04:31:08;;;;;;;10.20;3.85;;;25.70;65.30;;;;;;5055914;28;20052;-62
2021/06/22 04:33:34;;;;;;;8.73;3.30;;;25.70;65.60;;;;;;5055993;28;20092;-62
2021/06/22 04:36:00;;;;;;;6.55;3.72;;;25.80;65.70;;;;;;5049503;28;20032;-62
2021/06/22 04:38:25;;;;;;;5.50;3.40;;;25.80;65.20;;;;;;5045270;28;20025;-62
2021/06/22 04:40:51;;;;;;;9.10;3.40;;;25.80;65.20;;;;;;5052946;28;20095;-62
2021/06/22 04:43:17;;;;;;;8.05;3.20;;;25.80;65.10;;;;;;5055504;28;20021;-62
2021/06/22 04:45:42;;;;;;;8.63;3.38;;;25.80;65.30;;;;;;5055587;28;20445;-62
2021/06/22 04:48:08;;;;;;;11.25;3.58;;;25.70;65.20;;;;;;5055282;28;20400;-62
2021/06/22 04:50:34;;;;;;;10.77;3.30;;;25.70;65.00;;;;;;5055619;28;20100;-62
2021/06/22 04:53:00;;;;;;;7.75;3.10;;;25.60;64.50;;;;;;5055598;28;20025;-62
2021/06/22 04:55:26;;;;;;;11.00;3.80;;;25.50;64.90;;;;;;5052400;28;20123;-63
2021/06/22 04:57:56;;;;;;;13.13;3.47;;;25.40;64.80;;;;;;5055811;28;20025;-63
2021/06/22 05:00:22;;;;;;;9.40;3.30;;;25.30;64.50;;;;;;5053032;28;20408;-63
2021/06/22 05:02:47;;;;;;;12.90;3.47;;;25.20;64.90;;;;;;5053939;28;20037;-63
2021/06/22 05:05:14;;;;;;;9.38;3.15;;;25.20;65.10;;;;;;5054711;28;20124;-63
2021/06/22 05:07:40;;;;;;;13.48;3.75;;;25.10;65.30;;;;;;5054780;28;20021;-63
2021/06/22 05:10:08;;;;;;;11.18;3.67;;;25.00;65.30;;;;;;5052436;28;20111;-62
2021/06/22 05:12:34;;;;;;;8.18;3.50;;;25.00;65.20;;;;;;5053968;28;20473;-61
2021/06/22 05:14:59;;;;;;;12.25;3.47;;;25.00;65.70;;;;;;5036912;28;20143;-61
2021/06/22 05:17:25;;;;;;;9.95;3.90;;;25.10;65.30;;;;;;5035427;28;20116;-61
2021/06/22 05:19:51;;;;;;;8.15;3.10;;;25.20;65.10;;;;;;5041041;28;20040;-61
2021/06/22 05:22:17;;;;;;;6.80;3.08;;;25.30;65.10;;;;;;5053989;28;20045;-61
2021/06/22 05:24:43;;;;;;;15.93;3.85;;;25.40;65.10;;;;;;5041650;28;20091;-61
2021/06/22 05:27:09;;;;;;;9.85;3.78;;;25.60;65.20;;;;;;5034115;28;20188;-61
2021/06/22 05:29:35;;;;;;;10.38;3.70;;;25.80;65.30;;;;;;5046239;28;20025;-60
2021/06/22 05:32:00;;;;;;;11.07;3.53;;;26.00;64.90;;;;;;5043700;28;20057;-60
2021/06/22 05:34:26;;;;;;;11.60;3.28;;;26.20;64.60;;;;;;5038774;28;20029;-60
2021/06/22 05:36:52;;;;;;;13.43;3.75;;;26.30;63.90;;;;;;5041935;28;20021;-58
2021/06/22 05:39:17;;;;;;;8.30;3.55;;;26.50;63.90;;;;;;5047402;28;20037;-58
2021/06/22 05:41:45;;;;;;;10.23;3.60;;;26.70;63.70;;;;;;5042242;28;20114;-60
2021/06/22 05:44:10;;;;;;;16.38;3.60;;;26.80;63.40;;;;;;5040923;28;20032;-58
2021/06/22 05:46:36;;;;;;;15.60;3.80;;;26.90;62.90;;;;;;5045649;28;20361;-60
2021/06/22 05:49:02;;;;;;;8.68;3.63;;;27.00;62.50;;;;;;5045381;28;20553;-58
2021/06/22 05:51:27;;;;;;;12.23;4.13;;;27.00;62.00;;;;;;5039269;28;20029;-58
2021/06/22 05:53:53;;;;;;;11.80;3.80;;;27.10;61.70;;;;;;5041158;28;20132;-59
2021/06/22 05:56:19;;;;;;;10.38;3.75;;;27.10;61.80;;;;;;5036379;28;20112;-59
2021/06/22 05:58:45;;;;;;;14.07;3.75;;;27.20;62.10;;;;;;5033181;28;21931;-61
2021/06/22 06:01:10;;;;;;;8.05;3.58;;;27.20;62.20;;;;;;5032706;28;20028;-60
2021/06/22 06:03:36;;;;;;;11.38;4.38;;;27.20;61.90;;;;;;5031840;28;20116;-60
2021/06/22 06:06:03;;;;;;;14.75;3.65;;;27.30;62.00;;;;;;5032157;28;20148;-60
2021/06/22 06:08:29;;;;;;;10.27;4.00;;;27.30;62.00;;;;;;5034090;28;20020;-59
2021/06/22 06:10:55;;;;;;;13.55;4.32;;;27.30;61.90;;;;;;5037958;28;20108;-60
2021/06/22 06:13:32;;;;;;;14.30;4.28;;;27.40;61.70;;;;;;5040340;28;20116;-60
2021/06/22 06:15:58;;;;;;;17.15;4.57;;;27.40;61.70;;;;;;5035764;28;20323;-61
2021/06/22 06:18:24;;;;;;;18.85;3.80;;;27.40;61.40;;;;;;5035367;28;20040;-60
2021/06/22 06:20:51;;;;;;;16.25;4.03;;;27.40;61.30;;;;;;5051466;28;20025;-60
2021/06/22 06:23:17;;;;;;;24.42;4.15;;;27.40;61.20;;;;;;5031251;28;20124;-60
2021/06/22 06:25:46;;;;;;;14.65;4.75;;;27.50;61.10;;;;;;5033440;28;20196;-59
2021/06/22 06:28:17;;;;;;;16.52;4.28;;;27.50;61.80;;;;;;5034584;28;20087;-60
2021/06/22 06:30:43;;;;;;;17.75;4.38;;;27.50;61.90;;;;;;5034210;28;20037;-59
2021/06/22 06:33:09;;;;;;;16.92;4.40;;;27.50;61.90;;;;;;5034844;28;20083;-60
2021/06/22 06:35:35;;;;;;;18.50;4.15;;;27.60;61.70;;;;;;5033502;28;20037;-60
2021/06/22 06:38:00;;;;;;;13.45;3.85;;;27.60;61.30;;;;;;5030404;28;20025;-60
2021/06/22 06:40:26;;;;;;;18.30;4.95;;;27.60;61.50;;;;;;5029285;28;20060;-60
2021/06/22 06:42:52;;;;;;;19.85;5.45;;;27.60;61.60;;;;;;5034930;28;20647;-60
2021/06/22 06:45:18;;;;;;;17.83;5.10;;;27.70;61.70;;;;;;5028625;28;20061;-60
2021/06/22 06:47:45;;;;;;;18.85;4.32;;;27.70;61.60;;;;;;5030648;28;22686;-60
2021/06/22 06:50:11;;;;;;;14.50;4.40;;;27.70;62.00;;;;;;5031604;28;20022;-60
2021/06/22 06:52:37;;;;;;;18.77;5.25;;;27.70;61.30;;;;;;5026301;28;20761;-60
2021/06/22 06:55:03;;;;;;;22.08;5.15;;;27.60;61.00;;;;;;5029885;28;20067;-60
2021/06/22 06:57:29;;;;;;;21.40;5.00;;;27.70;60.30;;;;;;5029261;28;20037;-61
2021/06/22 06:59:55;;;;;;;17.80;5.40;;;27.60;60.20;;;;;;5030135;28;20032;-61
2021/06/22 07:02:20;;;;;;;16.90;4.80;;;27.60;60.00;;;;;;5025002;28;20195;-62
2021/06/22 07:04:46;;;;;;;19.17;5.50;;;27.60;60.10;;;;;;5017474;28;20809;-60
2021/06/22 07:07:12;;;;;;;24.85;5.53;;;27.60;60.50;;;;;;5022289;28;20025;-59
2021/06/22 07:09:37;;;;;;;16.73;4.95;;;27.50;61.00;;;;;;5023990;28;20035;-61
2021/06/22 07:12:03;;;;;;;25.52;5.97;;;27.50;60.60;;;;;;5025796;28;20029;-61
2021/06/22 07:14:29;;;;;;;20.40;4.68;;;27.40;59.70;;;;;;5025261;28;20478;-59
2021/06/22 07:16:55;;;;;;;22.10;5.15;;;27.30;59.30;;;;;;5026914;28;20040;-58
2021/06/22 07:19:20;;;;;;;27.42;5.97;;;27.30;59.70;;;;;;5027286;28;20025;-58
2021/06/22 07:21:47;;;;;;;23.85;5.72;;;27.30;59.90;;;;;;5026026;28;20077;-59
2021/06/22 07:24:13;;;;;;;31.40;5.95;;;27.20;59.80;;;;;;5027608;28;20347;-59
2021/06/22 07:26:39;;;;;;;16.80;5.20;;;27.20;60.10;;;;;;5025546;28;20045;-60
2021/06/22 07:29:05;;;;;;;29.48;6.35;;;27.20;60.30;;;;;;5020037;28;20037;-58
2021/06/22 07:31:33;;;;;;;20.70;6.03;;;27.20;59.90;;;;;;5022697;28;20037;-60
2021/06/22 07:33:58;;;;;;;17.65;6.07;;;27.20;59.70;;;;;;5017295;28;20041;-61
2021/06/22 07:36:24;;;;;;;29.70;6.32;;;27.10;59.50;;;;;;5021426;28;20090;-60
2021/06/22 07:38:50;;;;;;;23.98;5.78;;;27.10;59.90;;;;;;5025300;28;20037;-61
2021/06/22 07:41:17;;;;;;;18.55;5.82;;;27.00;60.20;;;;;;5021709;28;20746;-59
2021/06/22 07:43:43;;;;;;;27.02;6.30;;;27.00;60.20;;;;;;5041684;28;20037;-61
2021/06/22 07:46:09;;;;;;;28.00;6.07;;;27.00;60.80;;;;;;5025098;28;20033;-61
2021/06/22 07:48:34;;;;;;;23.73;6.50;;;27.00;61.00;;;;;;5024643;28;20508;-60
2021/06/22 07:51:01;;;;;;;22.90;6.18;;;27.00;60.90;;;;;;5023997;28;20047;-60
2021/06/22 07:53:27;;;;;;;23.25;5.97;;;26.90;61.00;;;;;;5021897;28;20083;-61
2021/06/22 07:55:53;;;;;;;21.67;6.18;;;26.90;61.40;;;;;;5021758;28;20177;-58
2021/06/22 07:58:18;;;;;;;24.40;5.82;;;27.00;61.40;;;;;;5041038;28;20036;-61
2021/06/22 08:00:49;;;;;;;22.95;5.65;;;26.90;61.50;;;;;;5027625;28;20060;-62
2021/06/22 08:03:18;;;;;;;24.20;6.65;;;26.90;61.30;;;;;;5033834;28;20520;-62
2021/06/22 08:05:45;;;;;;;20.75;6.38;;;26.90;61.40;;;;;;5024228;28;20553;-61
2021/06/22 08:08:14;;;;;;;19.92;6.63;;;26.90;61.60;;;;;;5030211;28;20150;-60
2021/06/22 08:10:40;;;;;;;20.05;5.20;;;27.00;62.40;;;;;;5025057;28;20051;-60
2021/06/22 08:13:06;;;;;;;30.88;6.22;;;27.00;62.80;;;;;;5021889;28;20583;-59
2021/06/22 08:15:32;;;;;;;23.92;5.60;;;27.00;62.40;;;;;;5026414;28;20558;-61
2021/06/22 08:17:58;;;;;;;29.23;6.10;;;27.00;62.60;;;;;;5024258;28;20028;-61
2021/06/22 08:20:23;;;;;;;30.58;6.65;;;27.10;63.10;;;;;;5029010;28;20756;-61
2021/06/22 08:22:54;;;;;;;33.22;6.85;;;27.10;63.50;;;;;;5019279;28;20083;-61
2021/06/22 08:25:22;;;;;;;32.47;6.10;;;27.20;63.50;;;;;;5023728;28;20065;-61
2021/06/22 08:27:48;;;;;;;29.83;6.40;;;27.20;63.90;;;;;;5021518;28;20086;-62
2021/06/22 08:30:14;;;;;;;27.10;6.18;;;27.20;63.30;;;;;;5024997;28;20482;-61
2021/06/22 08:32:40;;;;;;;25.52;5.93;;;27.20;63.20;;;;;;5022480;28;20020;-61
2021/06/22 08:35:06;;;;;;;25.00;5.78;;;27.20;63.40;;;;;;5023047;28;20039;-62
2021/06/22 08:37:32;;;;;;;21.85;6.35;;;27.20;63.40;;;;;;5023612;28;20123;-61
2021/06/22 08:39:57;;;;;;;23.58;5.05;;;27.20;63.90;;;;;;5029878;28;20125;-61
2021/06/22 08:42:24;;;;;;;28.13;5.80;;;27.20;64.40;;;;;;5027098;28;20087;-62
2021/06/22 08:44:53;;;;;;;25.13;6.10;;;27.30;64.70;;;;;;5025667;28;20480;-59
2021/06/22 08:47:23;;;;;;;24.25;5.63;;;27.30;64.30;;;;;;5030822;28;20029;-58
2021/06/22 08:49:52;;;;;;;30.00;7.03;;;27.30;64.20;;;;;;5022151;28;20041;-57
2021/06/22 08:52:23;;;;;;;35.65;7.28;;;27.30;64.60;;;;;;5024921;28;20140;-59
2021/06/22 08:54:50;;;;;;;27.15;6.72;;;27.30;64.90;;;;;;5018278;28;20029;-57
2021/06/22 08:57:15;;;;;;;33.20;8.25;;;27.30;65.10;;;;;;5023966;28;20033;-62
2021/06/22 08:59:44;;;;;;;34.67;8.10;;;27.30;65.40;;;;;;5023154;28;20033;-58
2021/06/22 09:02:10;;;;;;;31.42;7.28;;;27.40;65.10;;;;;;5020440;28;20046;-57
2021/06/22 09:04:35;;;;;;;30.27;7.57;;;27.40;64.80;;;;;;5024612;28;20040;-59
2021/06/22 09:07:01;;;;;;;29.23;7.00;;;27.40;64.40;;;;;;5021047;28;20029;-58
2021/06/22 09:09:38;;;;;;;33.75;8.05;;;27.40;64.30;;;;;;5032040;28;20078;-59
2021/06/22 09:12:05;;;;;;;30.15;7.13;;;27.40;64.10;;;;;;5020479;28;20465;-58
2021/06/22 09:14:39;;;;;;;38.83;7.43;;;27.30;64.30;;;;;;5021706;28;20500;-59
2021/06/22 09:17:06;;;;;;;30.23;7.15;;;27.40;64.90;;;;;;5020724;28;20036;-60
2021/06/22 09:19:33;;;;;;;26.08;6.90;;;27.30;65.20;;;;;;5026132;28;20118;-59
2021/06/22 09:22:17;;;;;;;32.88;6.53;;;27.40;65.80;;;;;;5025229;28;20032;-59
2021/06/22 09:25:09;;;;;;;22.83;6.78;;;27.40;65.80;;;;;;5024701;28;20048;-58
2021/06/22 09:27:49;;;;;;;30.77;7.78;;;27.40;66.50;;;;;;5022683;28;20041;-60
2021/06/22 09:30:36;;;;;;;29.08;6.78;;;27.30;65.80;;;;;;5025239;28;20593;-58
2021/06/22 09:33:18;;;;;;;39.72;8.82;;;27.30;65.10;;;;;;5024633;28;20114;-61
2021/06/22 09:35:45;;;;;;;29.08;6.88;;;27.30;64.60;;;;;;5027259;28;20033;-60
2021/06/22 09:38:12;;;;;;;22.55;5.82;;;27.20;64.40;;;;;;5031801;28;20129;-58
2021/06/22 09:40:38;;;;;;;25.92;6.90;;;27.20;64.80;;;;;;5031561;28;20041;-60
2021/06/22 09:43:04;;;;;;;26.70;8.02;;;27.20;64.90;;;;;;5032532;28;20396;-59
2021/06/22 09:45:30;;;;;;;32.75;6.65;;;27.20;64.60;;;;;;5028821;28;20037;-60
2021/06/22 09:48:00;;;;;;;36.05;7.28;;;27.20;64.60;;;;;;5031911;28;20057;-61
2021/06/22 09:50:58;;;;;;;28.07;8.00;;;27.20;64.50;;;;;;5029684;28;20489;-62
2021/06/22 09:53:26;;;;;;;29.33;6.95;;;27.20;65.80;;;;;;5008428;28;20327;-60
2021/06/22 09:55:52;;;;;;;35.92;7.30;;;27.20;64.90;;;;;;5035385;28;20756;-59
2021/06/22 09:58:41;;;;;;;22.27;7.40;;;27.20;64.60;;;;;;5032976;28;22852;-59
2021/06/22 10:01:26;;;;;;;33.67;7.78;;;27.20;64.60;;;;;;5029014;28;21291;-60
2021/06/22 10:03:52;;;;;;;25.27;6.47;;;27.20;64.60;;;;;;5026895;28;20037;-60
2021/06/22 10:06:18;;;;;;;28.08;5.93;;;27.20;65.00;;;;;;5026202;28;20029;-60
2021/06/22 10:08:57;;;;;;;31.83;7.43;;;27.20;64.90;;;;;;5028002;28;20103;-60
2021/06/22 10:11:40;;;;;;;41.30;8.18;;;27.20;65.30;;;;;;5026710;28;20043;-60
2021/06/22 10:14:09;;;;;;;26.35;7.15;;;27.20;65.60;;;;;;5026853;28;20014;-60
2021/06/22 10:16:36;;;;;;;31.55;7.28;;;27.20;65.90;;;;;;5031708;28;20373;-60
2021/06/22 10:19:05;;;;;;;33.55;8.10;;;27.10;66.20;;;;;;5031633;28;20103;-60
2021/06/22 10:21:32;;;;;;;26.23;7.15;;;27.10;66.50;;;;;;5029768;28;20582;-60
2021/06/22 10:23:58;;;;;;;32.42;7.05;;;27.10;66.30;;;;;;5029483;28;20033;-60
2021/06/22 10:26:27;;;;;;;32.15;8.05;;;27.10;66.20;;;;;;5030789;28;20079;-60
2021/06/22 10:28:53;;;;;;;28.05;7.05;;;27.10;66.30;;;;;;5033765;28;20480;-59
2021/06/22 10:31:20;;;;;;;25.30;7.07;;;27.10;66.40;;;;;;5028337;28;20037;-60
2021/06/22 10:33:46;;;;;;;23.70;7.38;;;27.00;66.60;;;;;;5032550;28;20032;-60
2021/06/22 10:36:31;;;;;;;34.88;7.97;;;27.10;66.70;;;;;;5030530;28;20038;-60
2021/06/22 10:39:06;;;;;;;27.65;6.90;;;27.10;66.30;;;;;;5033127;28;20038;-60
2021/06/22 10:41:41;;;;;;;44.53;8.40;;;27.00;66.60;;;;;;5032909;28;21303;-60
2021/06/22 10:44:09;;;;;;;31.58;7.13;;;27.00;66.90;;;;;;5032398;28;21517;-60
2021/06/22 10:46:35;;;;;;;26.80;7.53;;;27.00;67.30;;;;;;5029644;28;20025;-60
2021/06/22 10:49:17;;;;;;;29.45;6.60;;;27.00;67.30;;;;;;5027753;28;20430;-60
2021/06/22 10:51:46;;;;;;;33.00;8.77;;;27.10;67.40;;;;;;5033763;28;20484;-60
2021/06/22 10:54:50;;;;;;;38.47;7.63;;;27.00;67.40;;;;;;5032954;28;20059;-60
2021/06/22 10:57:17;;;;;;;38.35;7.65;;;27.00;68.10;;;;;;5028973;28;20048;-61
2021/06/22 11:00:03;;;;;;;29.58;7.60;;;26.90;67.80;;;;;;5036484;28;20029;-59
2021/06/22 11:03:02;;;;;;;38.55;9.10;;;26.90;67.80;;;;;;5035039;28;20044;-59
2021/06/22 11:05:29;;;;;;;33.97;8.00;;;26.90;66.80;;;;;;5029964;28;20083;-61
2021/06/22 11:08:16;;;;;;;32.60;7.45;;;26.90;67.70;;;;;;5029816;28;20029;-62
2021/06/22 11:11:02;;;;;;;36.92;8.25;;;26.90;67.90;;;;;;5030628;28;20032;-61
2021/06/22 11:13:31;;;;;;;37.90;8.77;;;26.90;66.70;;;;;;5021042;28;20040;-60
2021/06/22 11:15:57;;;;;;;31.27;8.75;;;27.00;66.10;;;;;;5021803;28;20041;-61
2021/06/22 11:18:23;;;;;;;30.75;8.32;;;27.00;66.10;;;;;;5027991;28;20651;-62
2021/06/22 11:20:54;;;;;;;33.55;7.65;;;27.10;65.50;;;;;;5023128;28;20056;-62
2021/06/22 11:23:22;;;;;;;31.20;8.48;;;27.20;65.10;;;;;;5020254;28;20120;-60
2021/06/22 11:25:59;;;;;;;42.60;8.98;;;27.20;65.50;;;;;;5024804;28;20044;-61
2021/06/22 11:28:25;;;;;;;36.90;9.65;;;27.20;64.80;;;;;;5026186;28;20079;-61
2021/06/22 11:30:55;;;;;;;48.15;9.70;;;27.20;64.80;;;;;;5016193;28;20033;-60
2021/06/22 11:33:35;;;;;;;42.60;10.13;;;27.30;64.30;;;;;;5031159;28;20112;-60
2021/06/22 11:36:19;;;;;;;38.17;9.27;;;27.30;64.10;;;;;;5032450;28;23365;-61
2021/06/22 11:39:18;;;;;;;43.08;8.80;;;27.40;63.90;;;;;;5032190;28;20032;-62
2021/06/22 11:42:11;;;;;;;48.63;9.80;;;27.40;64.10;;;;;;5033238;28;20021;-60
2021/06/22 11:44:45;;;;;;;53.00;8.63;;;27.40;64.50;;;;;;5022158;28;20392;-60
2021/06/22 11:47:31;;;;;;;42.30;9.07;;;27.40;65.60;;;;;;5031731;28;20710;-61
2021/06/22 11:50:10;;;;;;;45.90;10.32;;;27.40;64.70;;;;;;5035721;28;20062;-60
2021/06/22 11:52:37;;;;;;;34.92;8.13;;;27.40;65.00;;;;;;5034371;28;20157;-61
2021/06/22 11:55:17;;;;;;;44.22;9.70;;;27.40;65.30;;;;;;5031784;28;20072;-61
2021/06/22 11:57:49;;;;;;;42.33;9.00;;;27.40;65.30;;;;;;5032050;28;20048;-58
2021/06/22 12:00:21;;;;;;;39.38;9.20;;;27.40;65.80;;;;;;5040692;28;20499;-61
2021/06/22 12:02:54;;;;;;;35.47;8.65;;;27.40;65.10;;;;;;5036337;28;20527;-61
2021/06/22 12:05:22;;;;;;;39.83;9.25;;;27.40;64.70;;;;;;5031846;28;20025;-59
2021/06/22 12:07:52;;;;;;;46.15;10.43;;;27.40;64.60;;;;;;5034436;28;20033;-60
2021/06/22 12:10:20;;;;;;;43.65;9.52;;;27.40;64.00;;;;;;5035206;28;20041;-60
2021/06/22 12:12:48;;;;;;;35.78;7.85;;;27.50;64.00;;;;;;5032427;28;20040;-60
2021/06/22 12:15:26;;;;;;;42.20;10.13;;;27.50;64.20;;;;;;5035743;28;20036;-61
2021/06/22 12:17:52;;;;;;;41.15;9.00;;;27.50;63.40;;;;;;5031814;28;20084;-61
2021/06/22 12:20:29;;;;;;;57.90;12.23;;;27.50;63.20;;;;;;5030457;28;20059;-61
2021/06/22 12:23:14;;;;;;;49.78;10.13;;;27.50;62.30;;;;;;5030123;28;20057;-61
2021/06/22 12:25:52;;;;;;;50.80;11.02;;;27.60;61.80;;;;;;5030760;28;20036;-59
2021/06/22 12:28:18;;;;;;;48.67;9.57;;;27.60;60.80;;;;;;5029537;28;20334;-59
2021/06/22 12:30:51;;;;;;;47.75;10.13;;;27.70;60.80;;;;;;5030615;28;20030;-60
2021/06/22 12:33:18;;;;;;;46.10;9.70;;;27.70;59.80;;;;;;5038575;28;20402;-59
2021/06/22 12:35:47;;;;;;;43.60;11.13;;;27.70;59.50;;;;;;5032996;28;20489;-60
2021/06/22 12:38:16;;;;;;;49.05;11.52;;;27.80;59.30;;;;;;5036281;28;20489;-60
2021/06/22 12:40:56;;;;;;;41.28;9.77;;;27.80;59.10;;;;;;5031600;28;20469;-60
2021/06/22 12:43:46;;;;;;;37.63;9.95;;;27.80;59.40;;;;;;5033617;28;20688;-63
2021/06/22 12:46:14;;;;;;;44.22;9.35;;;27.90;58.80;;;;;;5033242;28;20041;-61
2021/06/22 12:48:42;;;;;;;50.72;11.25;;;27.90;59.00;;;;;;5028539;28;20095;-61